createdAt,value
2023-04-22T00:00:57.901Z,94710.00
2023-04-22T00:01:57.934Z,94712.00
2023-04-22T00:02:58.005Z,94708.00
2023-04-22T00:03:58.300Z,94700.00
2023-04-22T00:04:58.217Z,94704.00
2023-04-22T00:05:58.238Z,94706.00
2023-04-22T00:06:58.248Z,94706.00
2023-04-22T00:07:58.289Z,94704.00
2023-04-22T00:08:58.369Z,94704.00
2023-04-22T00:09:58.390Z,94708.00
2023-04-22T00:10:58.475Z,94712.00
2023-04-22T00:11:58.540Z,94710.00
2023-04-22T00:12:58.599Z,94712.00
2023-04-22T00:13:58.687Z,94710.00
2023-04-22T00:14:58.729Z,94706.00
2023-04-22T00:15:58.796Z,94704.00
2023-04-22T00:16:58.854Z,94706.00
2023-04-22T00:17:58.942Z,94704.00
2023-04-22T00:18:58.966Z,94698.00
2023-04-22T00:19:59.037Z,94698.00
2023-04-22T00:20:59.087Z,94702.00
2023-04-22T00:21:59.146Z,94706.00
2023-04-22T00:22:59.230Z,94704.00
2023-04-22T00:23:59.273Z,94704.00
2023-04-22T00:24:59.328Z,94706.00
2023-04-22T00:25:59.406Z,94710.00
2023-04-22T00:26:59.448Z,94712.00
2023-04-22T00:27:59.490Z,94708.00
2023-04-22T00:28:59.609Z,94704.00
2023-04-22T00:29:59.628Z,94700.00
2023-04-22T00:30:59.731Z,94692.00
2023-04-22T00:31:59.770Z,94694.00
2023-04-22T00:32:59.883Z,94704.00
2023-04-22T00:33:59.885Z,94708.00
2023-04-22T00:34:59.946Z,94708.00
2023-04-22T00:36:00.052Z,94698.00
2023-04-22T00:37:00.086Z,94690.00
2023-04-22T00:38:00.132Z,94688.00
2023-04-22T00:39:00.189Z,94694.00
2023-04-22T00:40:00.231Z,94700.00
2023-04-22T00:41:00.275Z,94702.00
2023-04-22T00:42:00.328Z,94704.00
2023-04-22T00:43:00.401Z,94696.00
2023-04-22T00:44:00.477Z,94694.00
2023-04-22T00:45:00.485Z,94696.00
2023-04-22T00:46:00.545Z,94704.00
2023-04-22T00:47:00.615Z,94710.00
2023-04-22T00:48:00.690Z,94708.00
2023-04-22T00:49:00.665Z,94706.00
2023-04-22T00:50:00.741Z,94706.00
2023-04-22T00:51:00.804Z,94704.00
2023-04-22T00:52:00.854Z,94706.00
2023-04-22T00:53:00.914Z,94704.00
2023-04-22T00:54:00.918Z,94704.00
2023-04-22T00:55:00.977Z,94702.00
2023-04-22T00:56:01.049Z,94702.00
2023-04-22T00:57:01.169Z,94698.00
2023-04-22T00:58:01.148Z,94706.00
2023-04-22T00:59:01.241Z,94708.00
2023-04-22T01:00:01.261Z,94712.00
2023-04-22T01:01:01.372Z,94714.00
2023-04-22T01:02:01.363Z,94706.00
2023-04-22T01:03:01.563Z,94696.00
2023-04-22T01:04:01.577Z,94692.00
2023-04-22T01:05:01.510Z,94702.00
2023-04-22T01:06:01.619Z,94710.00
2023-04-22T01:07:01.745Z,94712.00
2023-04-22T01:08:01.695Z,94704.00
2023-04-22T01:09:01.752Z,94704.00
2023-04-22T01:10:01.840Z,94706.00
2023-04-22T01:11:01.876Z,94706.00
2023-04-22T01:12:01.921Z,94704.00
2023-04-22T01:13:02.016Z,94706.00
2023-04-22T01:14:02.056Z,94706.00
2023-04-22T01:15:04.542Z,94710.00
2023-04-22T01:16:02.124Z,94710.00
2023-04-22T01:17:02.163Z,94708.00
2023-04-22T01:18:02.152Z,94706.00
2023-04-22T01:19:02.104Z,94700.00
2023-04-22T01:20:02.070Z,94710.00
2023-04-22T01:21:02.162Z,94712.00
2023-04-22T01:22:02.092Z,94710.00
2023-04-22T01:23:02.086Z,94708.00
2023-04-22T01:24:02.067Z,94712.00
2023-04-22T01:25:02.054Z,94712.00
2023-04-22T01:26:02.032Z,94716.00
2023-04-22T01:27:02.075Z,94716.00
2023-04-22T01:28:03.065Z,94714.00
2023-04-22T01:29:02.031Z,94708.00
2023-04-22T01:30:02.053Z,94706.00
2023-04-22T01:31:01.985Z,94708.00
2023-04-22T01:32:02.061Z,94712.00
2023-04-22T01:33:02.072Z,94714.00
2023-04-22T01:34:02.002Z,94712.00
2023-04-22T01:35:01.966Z,94712.00
2023-04-22T01:36:01.975Z,94716.00
2023-04-22T01:37:01.945Z,94714.00
2023-04-22T01:38:01.944Z,94714.00
2023-04-22T01:39:01.957Z,94714.00
2023-04-22T01:40:01.949Z,94714.00
2023-04-22T01:41:01.989Z,94718.00
2023-04-22T01:42:01.971Z,94714.00
2023-04-22T01:43:01.970Z,94716.00
2023-04-22T01:44:01.928Z,94716.00
2023-04-22T01:45:01.932Z,94716.00
2023-04-22T01:46:01.973Z,94720.00
2023-04-22T01:47:01.939Z,94716.00
2023-04-22T01:48:01.963Z,94714.00
2023-04-22T01:49:01.912Z,94714.00
2023-04-22T01:50:01.918Z,94708.00
2023-04-22T01:51:01.982Z,94714.00
2023-04-22T01:52:01.995Z,94712.00
2023-04-22T01:53:02.036Z,94718.00
2023-04-22T01:54:02.111Z,94718.00
2023-04-22T01:55:02.143Z,94720.00
2023-04-22T01:56:02.226Z,94720.00
2023-04-22T01:57:02.265Z,94716.00
2023-04-22T01:58:02.332Z,94714.00
2023-04-22T01:59:02.393Z,94712.00
2023-04-22T02:00:02.469Z,94714.00
2023-04-22T02:01:02.496Z,94712.00
2023-04-22T02:02:02.569Z,94714.00
2023-04-22T02:03:02.812Z,94716.00
2023-04-22T02:04:02.638Z,94720.00
2023-04-22T02:05:02.875Z,94722.00
2023-04-22T02:06:02.801Z,94726.00
2023-04-22T02:07:02.821Z,94728.00
2023-04-22T02:08:02.877Z,94726.00
2023-04-22T02:09:02.936Z,94728.00
2023-04-22T02:10:02.982Z,94732.00
2023-04-22T02:11:03.032Z,94730.00
2023-04-22T02:12:03.080Z,94730.00
2023-04-22T02:13:03.093Z,94732.00
2023-04-22T02:14:03.136Z,94732.00
2023-04-22T02:15:03.195Z,94734.00
2023-04-22T02:16:03.249Z,94732.00
2023-04-22T02:17:03.309Z,94732.00
2023-04-22T02:18:03.331Z,94732.00
2023-04-22T02:19:03.362Z,94732.00
2023-04-22T02:20:03.475Z,94732.00
2023-04-22T02:21:03.652Z,94732.00
2023-04-22T02:22:03.486Z,94730.00
2023-04-22T02:23:03.530Z,94734.00
2023-04-22T02:24:03.545Z,94734.00
2023-04-22T02:25:03.600Z,94735.00
2023-04-22T02:26:03.651Z,94737.00
2023-04-22T02:27:03.664Z,94735.00
2023-04-22T02:28:03.682Z,94735.00
2023-04-22T02:29:03.703Z,94735.00
2023-04-22T02:30:03.740Z,94732.00
2023-04-22T02:31:03.784Z,94734.00
2023-04-22T02:32:03.805Z,94730.00
2023-04-22T02:33:03.897Z,94732.00
2023-04-22T02:34:03.902Z,94732.00
2023-04-22T02:35:03.938Z,94732.00
2023-04-22T02:36:03.952Z,94732.00
2023-04-22T02:37:03.979Z,94730.00
2023-04-22T02:38:03.995Z,94730.00
2023-04-22T02:39:03.990Z,94728.00
2023-04-22T02:40:04.024Z,94732.00
2023-04-22T02:41:04.061Z,94730.00
2023-04-22T02:42:04.114Z,94730.00
2023-04-22T02:43:04.091Z,94728.00
2023-04-22T02:44:04.140Z,94730.00
2023-04-22T02:45:04.147Z,94730.00
2023-04-22T02:46:04.251Z,94732.00
2023-04-22T02:47:04.293Z,94732.00
2023-04-22T02:48:04.332Z,94734.00
2023-04-22T02:49:04.303Z,94732.00
2023-04-22T02:50:04.298Z,94732.00
2023-04-22T02:51:04.363Z,94730.00
2023-04-22T02:52:04.375Z,94728.00
2023-04-22T02:53:04.390Z,94726.00
2023-04-22T02:54:04.411Z,94730.00
2023-04-22T02:55:04.463Z,94728.00
2023-04-22T02:56:04.501Z,94728.00
2023-04-22T02:57:04.554Z,94726.00
2023-04-22T02:58:04.571Z,94722.00
2023-04-22T02:59:04.600Z,94728.00
2023-04-22T03:00:04.623Z,94726.00
2023-04-22T03:01:04.728Z,94726.00
2023-04-22T03:02:06.666Z,94726.00
2023-04-22T03:03:04.983Z,94726.00
2023-04-22T03:04:04.956Z,94730.00
2023-04-22T03:05:04.823Z,94732.00
2023-04-22T03:06:04.893Z,94732.00
2023-04-22T03:07:04.886Z,94734.00
2023-04-22T03:08:04.966Z,94732.00
2023-04-22T03:09:05.030Z,94732.00
2023-04-22T03:10:05.034Z,94730.00
2023-04-22T03:11:05.080Z,94730.00
2023-04-22T03:12:05.129Z,94730.00
2023-04-22T03:13:05.195Z,94732.00
2023-04-22T03:14:05.235Z,94734.00
2023-04-22T03:15:05.240Z,94734.00
2023-04-22T03:16:05.365Z,94730.00
2023-04-22T03:17:05.327Z,94732.00
2023-04-22T03:18:05.370Z,94728.00
2023-04-22T03:19:05.366Z,94728.00
2023-04-22T03:20:05.342Z,94728.00
2023-04-22T03:21:05.389Z,94728.00
2023-04-22T03:22:05.406Z,94728.00
2023-04-22T03:23:05.415Z,94730.00
2023-04-22T03:24:05.434Z,94732.00
2023-04-22T03:25:05.424Z,94730.00
2023-04-22T03:26:05.469Z,94728.00
2023-04-22T03:27:05.458Z,94730.00
2023-04-22T03:28:05.477Z,94730.00
2023-04-22T03:29:05.447Z,94734.00
2023-04-22T03:30:05.449Z,94732.00
2023-04-22T03:31:05.496Z,94732.00
2023-04-22T03:32:05.523Z,94732.00
2023-04-22T03:33:05.561Z,94734.00
2023-04-22T03:34:05.472Z,94734.00
2023-04-22T03:35:05.459Z,94732.00
2023-04-22T03:36:05.480Z,94734.00
2023-04-22T03:37:05.462Z,94732.00
2023-04-22T03:38:05.492Z,94734.00
2023-04-22T03:39:05.495Z,94732.00
2023-04-22T03:40:05.492Z,94732.00
2023-04-22T03:41:05.568Z,94735.00
2023-04-22T03:42:05.514Z,94735.00
2023-04-22T03:43:05.515Z,94735.00
2023-04-22T03:44:05.480Z,94732.00
2023-04-22T03:45:05.587Z,94732.00
2023-04-22T03:46:05.618Z,94734.00
2023-04-22T03:47:05.521Z,94732.00
2023-04-22T03:48:05.602Z,94732.00
2023-04-22T03:49:05.516Z,94730.00
2023-04-22T03:50:05.558Z,94732.00
2023-04-22T03:51:05.608Z,94732.00
2023-04-22T03:52:05.574Z,94734.00
2023-04-22T03:53:05.585Z,94735.00
2023-04-22T03:54:05.615Z,94739.00
2023-04-22T03:55:05.579Z,94739.00
2023-04-22T03:56:05.603Z,94741.00
2023-04-22T03:57:05.594Z,94739.00
2023-04-22T03:58:05.598Z,94741.00
2023-04-22T03:59:05.606Z,94735.00
2023-04-22T04:00:05.585Z,94735.00
2023-04-22T04:01:05.634Z,94735.00
2023-04-22T04:02:05.698Z,94735.00
2023-04-22T04:03:05.768Z,94737.00
2023-04-22T04:04:05.788Z,94737.00
2023-04-22T04:05:05.695Z,94737.00
2023-04-22T04:06:05.710Z,94737.00
2023-04-22T04:07:05.627Z,94739.00
2023-04-22T04:08:05.618Z,94741.00
2023-04-22T04:09:05.641Z,94743.00
2023-04-22T04:10:05.614Z,94745.00
2023-04-22T04:11:05.623Z,94745.00
2023-04-22T04:12:05.620Z,94741.00
2023-04-22T04:13:05.629Z,94743.00
2023-04-22T04:14:05.651Z,94745.00
2023-04-22T04:15:05.678Z,94745.00
2023-04-22T04:16:05.781Z,94747.00
2023-04-22T04:17:05.665Z,94745.00
2023-04-22T04:18:05.772Z,94745.00
2023-04-22T04:19:05.685Z,94747.00
2023-04-22T04:20:05.661Z,94745.00
2023-04-22T04:21:05.675Z,94747.00
2023-04-22T04:22:05.715Z,94745.00
2023-04-22T04:23:05.689Z,94747.00
2023-04-22T04:24:05.703Z,94747.00
2023-04-22T04:25:05.685Z,94751.00
2023-04-22T04:26:05.739Z,94751.00
2023-04-22T04:27:05.710Z,94749.00
2023-04-22T04:28:05.704Z,94749.00
2023-04-22T04:29:05.723Z,94747.00
2023-04-22T04:30:05.721Z,94749.00
2023-04-22T04:31:05.761Z,94749.00
2023-04-22T04:32:05.734Z,94749.00
2023-04-22T04:33:05.818Z,94749.00
2023-04-22T04:34:05.742Z,94751.00
2023-04-22T04:35:05.729Z,94751.00
2023-04-22T04:36:05.716Z,94751.00
2023-04-22T04:37:05.744Z,94751.00
2023-04-22T04:38:05.750Z,94751.00
2023-04-22T04:39:05.709Z,94749.00
2023-04-22T04:40:05.736Z,94749.00
2023-04-22T04:41:05.726Z,94747.00
2023-04-22T04:42:05.760Z,94749.00
2023-04-22T04:43:05.742Z,94747.00
2023-04-22T04:44:05.745Z,94747.00
2023-04-22T04:45:05.767Z,94745.00
2023-04-22T04:46:05.772Z,94743.00
2023-04-22T04:47:05.937Z,94743.00
2023-04-22T04:48:05.784Z,94743.00
2023-04-22T04:49:05.727Z,94741.00
2023-04-22T04:50:05.761Z,94741.00
2023-04-22T04:51:05.740Z,94739.00
2023-04-22T04:52:05.756Z,94739.00
2023-04-22T04:53:05.773Z,94741.00
2023-04-22T04:54:05.775Z,94739.00
2023-04-22T04:55:05.750Z,94743.00
2023-04-22T04:56:05.767Z,94743.00
2023-04-22T04:57:05.769Z,94747.00
2023-04-22T04:58:05.828Z,94747.00
2023-04-22T04:59:05.780Z,94749.00
2023-04-22T05:00:05.794Z,94749.00
2023-04-22T05:01:05.823Z,94753.00
2023-04-22T05:02:05.900Z,94751.00
2023-04-22T05:03:05.920Z,94757.00
2023-04-22T05:04:05.976Z,94755.00
2023-04-22T05:05:05.870Z,94755.00
2023-04-22T05:06:05.848Z,94755.00
2023-04-22T05:07:05.848Z,94755.00
2023-04-22T05:08:05.888Z,94753.00
2023-04-22T05:09:05.868Z,94755.00
2023-04-22T05:10:05.898Z,94753.00
2023-04-22T05:11:05.864Z,94755.00
2023-04-22T05:12:05.904Z,94755.00
2023-04-22T05:13:05.909Z,94755.00
2023-04-22T05:14:05.857Z,94757.00
2023-04-22T05:15:05.884Z,94759.00
2023-04-22T05:16:05.888Z,94759.00
2023-04-22T05:17:05.902Z,94761.00
2023-04-22T05:18:05.978Z,94761.00
2023-04-22T05:19:05.894Z,94763.00
2023-04-22T05:20:05.912Z,94763.00
2023-04-22T05:21:05.899Z,94763.00
2023-04-22T05:22:05.918Z,94763.00
2023-04-22T05:23:05.914Z,94761.00
2023-04-22T05:24:05.929Z,94767.00
2023-04-22T05:25:05.923Z,94767.00
2023-04-22T05:26:05.918Z,94769.00
2023-04-22T05:27:06.037Z,94767.00
2023-04-22T05:28:05.957Z,94765.00
2023-04-22T05:29:05.956Z,94769.00
2023-04-22T05:30:05.963Z,94769.00
2023-04-22T05:31:05.932Z,94769.00
2023-04-22T05:32:06.048Z,94769.00
2023-04-22T05:33:06.016Z,94769.00
2023-04-22T05:34:05.976Z,94769.00
2023-04-22T05:35:05.994Z,94769.00
2023-04-22T05:36:05.986Z,94771.00
2023-04-22T05:37:05.972Z,94763.00
2023-04-22T05:38:05.993Z,94763.00
2023-04-22T05:39:06.039Z,94761.00
2023-04-22T05:40:06.038Z,94755.00
2023-04-22T05:41:05.982Z,94755.00
2023-04-22T05:42:05.997Z,94753.00
2023-04-22T05:43:06.024Z,94753.00
2023-04-22T05:44:06.023Z,94755.00
2023-04-22T05:45:06.047Z,94751.00
2023-04-22T05:46:06.068Z,94753.00
2023-04-22T05:47:06.015Z,94751.00
2023-04-22T05:48:06.063Z,94751.00
2023-04-22T05:49:06.027Z,94749.00
2023-04-22T05:50:06.033Z,94747.00
2023-04-22T05:51:06.064Z,94747.00
2023-04-22T05:52:06.081Z,94743.00
2023-04-22T05:53:06.083Z,94745.00
2023-04-22T05:54:06.077Z,94745.00
2023-04-22T05:55:06.074Z,94743.00
2023-04-22T05:56:06.076Z,94747.00
2023-04-22T05:57:06.071Z,94743.00
2023-04-22T05:58:06.117Z,94745.00
2023-04-22T05:59:06.106Z,94747.00
2023-04-22T06:00:06.122Z,94745.00
2023-04-22T06:01:06.117Z,94743.00
2023-04-22T06:02:06.210Z,94745.00
2023-04-22T06:03:06.307Z,94747.00
2023-04-22T06:04:06.478Z,94745.00
2023-04-22T06:05:06.461Z,94749.00
2023-04-22T06:06:06.276Z,94751.00
2023-04-22T06:07:06.263Z,94753.00
2023-04-22T06:08:06.260Z,94753.00
2023-04-22T06:09:06.294Z,94753.00
2023-04-22T06:10:06.310Z,94751.00
2023-04-22T06:11:06.346Z,94757.00
2023-04-22T06:12:06.345Z,94753.00
2023-04-22T06:13:06.343Z,94755.00
2023-04-22T06:14:06.328Z,94757.00
2023-04-22T06:15:06.355Z,94757.00
2023-04-22T06:17:06.414Z,94761.00
2023-04-22T06:18:06.447Z,94761.00
2023-04-22T06:19:06.514Z,94763.00
2023-04-22T06:20:06.499Z,94759.00
2023-04-22T06:21:06.497Z,94761.00
2023-04-22T06:22:06.578Z,94761.00
2023-04-22T06:23:06.621Z,94757.00
2023-04-22T06:24:06.624Z,94755.00
2023-04-22T06:25:06.669Z,94755.00
2023-04-22T06:26:06.711Z,94753.00
2023-04-22T06:27:06.703Z,94755.00
2023-04-22T06:28:06.778Z,94755.00
2023-04-22T06:29:06.828Z,94749.00
2023-04-22T06:30:06.899Z,94751.00
2023-04-22T06:31:06.965Z,94747.00
2023-04-22T06:32:06.989Z,94749.00
2023-04-22T06:33:07.134Z,94747.00
2023-04-22T06:34:07.095Z,94747.00
2023-04-22T06:35:07.177Z,94751.00
2023-04-22T06:36:07.194Z,94749.00
2023-04-22T06:37:07.283Z,94751.00
2023-04-22T06:38:07.309Z,94751.00
2023-04-22T06:39:07.354Z,94755.00
2023-04-22T06:40:07.449Z,94753.00
2023-04-22T06:41:07.532Z,94755.00
2023-04-22T06:42:07.596Z,94757.00
2023-04-22T06:43:07.614Z,94753.00
2023-04-22T06:44:07.695Z,94755.00
2023-04-22T06:45:07.762Z,94751.00
2023-04-22T06:46:07.850Z,94753.00
2023-04-22T06:47:07.879Z,94751.00
2023-04-22T06:48:07.920Z,94753.00
2023-04-22T06:49:07.988Z,94751.00
2023-04-22T06:50:08.027Z,94753.00
2023-04-22T06:51:08.076Z,94755.00
2023-04-22T06:52:08.174Z,94753.00
2023-04-22T06:53:08.184Z,94755.00
2023-04-22T06:54:08.241Z,94757.00
2023-04-22T06:55:08.310Z,94757.00
2023-04-22T06:56:08.345Z,94759.00
2023-04-22T06:57:08.487Z,94761.00
2023-04-22T06:58:08.476Z,94759.00
2023-04-22T06:59:08.507Z,94761.00
2023-04-22T07:00:08.588Z,94763.00
2023-04-22T07:01:08.607Z,94761.00
2023-04-22T07:02:08.848Z,94761.00
2023-04-22T07:03:08.742Z,94763.00
2023-04-22T07:04:08.778Z,94761.00
2023-04-22T07:05:08.776Z,94759.00
2023-04-22T07:06:08.793Z,94761.00
2023-04-22T07:07:08.852Z,94759.00
2023-04-22T07:08:08.880Z,94759.00
2023-04-22T07:09:08.913Z,94755.00
2023-04-22T07:10:08.936Z,94755.00
2023-04-22T07:11:08.961Z,94753.00
2023-04-22T07:12:09.002Z,94757.00
2023-04-22T07:13:09.039Z,94755.00
2023-04-22T07:14:09.054Z,94755.00
2023-04-22T07:15:09.143Z,94751.00
2023-04-22T07:16:09.372Z,94749.00
2023-04-22T07:17:09.266Z,94749.00
2023-04-22T07:18:10.180Z,94749.00
2023-04-22T07:19:09.252Z,94747.00
2023-04-22T07:20:09.299Z,94747.00
2023-04-22T07:21:09.287Z,94749.00
2023-04-22T07:22:09.358Z,94747.00
2023-04-22T07:23:09.373Z,94747.00
2023-04-22T07:24:09.346Z,94747.00
2023-04-22T07:25:09.373Z,94747.00
2023-04-22T07:26:09.397Z,94745.00
2023-04-22T07:27:09.408Z,94749.00
2023-04-22T07:28:09.437Z,94749.00
2023-04-22T07:29:09.543Z,94743.00
2023-04-22T07:30:09.451Z,94745.00
2023-04-22T07:31:09.481Z,94741.00
2023-04-22T07:32:09.611Z,94741.00
2023-04-22T07:33:09.534Z,94739.00
2023-04-22T07:34:09.533Z,94735.00
2023-04-22T07:35:09.525Z,94735.00
2023-04-22T07:36:09.575Z,94735.00
2023-04-22T07:37:09.672Z,94735.00
2023-04-22T07:38:10.575Z,94732.00
2023-04-22T07:39:09.572Z,94732.00
2023-04-22T07:40:09.606Z,94728.00
2023-04-22T07:41:09.624Z,94728.00
2023-04-22T07:42:09.641Z,94728.00
2023-04-22T07:43:09.613Z,94730.00
2023-04-22T07:44:09.629Z,94728.00
2023-04-22T07:45:09.654Z,94726.00
2023-04-22T07:46:09.727Z,94722.00
2023-04-22T07:47:09.675Z,94722.00
2023-04-22T07:48:09.666Z,94728.00
2023-04-22T07:49:09.678Z,94724.00
2023-04-22T07:50:09.685Z,94724.00
2023-04-22T07:51:09.718Z,94724.00
2023-04-22T07:52:09.695Z,94724.00
2023-04-22T07:53:09.720Z,94722.00
2023-04-22T07:54:09.700Z,94722.00
2023-04-22T07:55:09.746Z,94720.00
2023-04-22T07:56:09.737Z,94720.00
2023-04-22T07:57:09.747Z,94720.00
2023-04-22T07:58:09.761Z,94722.00
2023-04-22T07:59:09.755Z,94722.00
2023-04-22T08:00:09.775Z,94720.00
2023-04-22T08:01:09.975Z,94718.00
2023-04-22T08:02:09.916Z,94718.00
2023-04-22T08:03:10.026Z,94716.00
2023-04-22T08:04:10.142Z,94714.00
2023-04-22T08:05:09.881Z,94710.00
2023-04-22T08:06:09.846Z,94710.00
2023-04-22T08:07:26.897Z,94710.00
2023-04-22T08:08:10.865Z,94712.00
2023-04-22T08:09:09.843Z,94710.00
2023-04-22T08:10:09.853Z,94708.00
2023-04-22T08:11:09.844Z,94708.00
2023-04-22T08:12:09.839Z,94708.00
2023-04-22T08:13:09.858Z,94706.00
2023-04-22T08:14:09.829Z,94706.00
2023-04-22T08:15:09.895Z,94704.00
2023-04-22T08:16:09.932Z,94702.00
2023-04-22T08:17:09.916Z,94700.00
2023-04-22T08:18:09.783Z,94700.00
2023-04-22T08:19:09.798Z,94698.00
2023-04-22T08:20:09.770Z,94698.00
2023-04-22T08:21:09.794Z,94698.00
2023-04-22T08:22:09.751Z,94692.00
2023-04-22T08:23:09.756Z,94694.00
2023-04-22T08:24:09.779Z,94694.00
2023-04-22T08:25:09.720Z,94692.00
2023-04-22T08:26:09.745Z,94692.00
2023-04-22T08:27:09.754Z,94690.00
2023-04-22T08:28:09.717Z,94688.00
2023-04-22T08:29:09.694Z,94692.00
2023-04-22T08:30:09.717Z,94688.00
2023-04-22T08:31:09.764Z,94686.00
2023-04-22T08:32:09.710Z,94688.00
2023-04-22T08:33:09.678Z,94684.00
2023-04-22T08:34:09.658Z,94686.00
2023-04-22T08:35:09.697Z,94684.00
2023-04-22T08:36:09.665Z,94684.00
2023-04-22T08:37:09.688Z,94683.00
2023-04-22T08:38:09.668Z,94681.00
2023-04-22T08:39:09.645Z,94683.00
2023-04-22T08:40:09.666Z,94677.00
2023-04-22T08:41:09.657Z,94679.00
2023-04-22T08:42:09.695Z,94673.00
2023-04-22T08:43:09.699Z,94673.00
2023-04-22T08:44:09.690Z,94671.00
2023-04-22T08:45:09.769Z,94665.00
2023-04-22T08:46:09.760Z,94663.00
2023-04-22T08:47:09.806Z,94661.00
2023-04-22T08:48:09.748Z,94665.00
2023-04-22T08:49:09.780Z,94663.00
2023-04-22T08:50:09.847Z,94657.00
2023-04-22T08:51:09.826Z,94659.00
2023-04-22T08:52:09.883Z,94655.00
2023-04-22T08:53:09.901Z,94655.00
2023-04-22T08:54:09.949Z,94657.00
2023-04-22T08:55:09.960Z,94657.00
2023-04-22T08:56:09.973Z,94657.00
2023-04-22T08:57:10.048Z,94653.00
2023-04-22T08:58:10.077Z,94653.00
2023-04-22T08:59:10.140Z,94651.00
2023-04-22T09:00:10.136Z,94653.00
2023-04-22T09:01:10.381Z,94647.00
2023-04-22T09:02:10.433Z,94651.00
2023-04-22T09:03:10.440Z,94649.00
2023-04-22T09:04:10.536Z,94649.00
2023-04-22T09:05:10.537Z,94643.00
2023-04-22T09:06:10.522Z,94643.00
2023-04-22T09:07:10.566Z,94645.00
2023-04-22T09:08:10.638Z,94641.00
2023-04-22T09:09:10.686Z,94637.00
2023-04-22T09:10:10.725Z,94635.00
2023-04-22T09:11:10.804Z,94633.00
2023-04-22T09:12:10.913Z,94635.00
2023-04-22T09:13:10.956Z,94637.00
2023-04-22T09:14:11.003Z,94633.00
2023-04-22T09:15:11.096Z,94626.00
2023-04-22T09:16:11.168Z,94624.00
2023-04-22T09:17:11.223Z,94622.00
2023-04-22T09:18:11.264Z,94620.00
2023-04-22T09:19:11.322Z,94618.00
2023-04-22T09:20:11.392Z,94616.00
2023-04-22T09:21:11.412Z,94616.00
2023-04-22T09:22:11.517Z,94616.00
2023-04-22T09:23:11.573Z,94614.00
2023-04-22T09:24:11.633Z,94612.00
2023-04-22T09:25:11.703Z,94610.00
2023-04-22T09:26:11.761Z,94610.00
2023-04-22T09:27:11.801Z,94606.00
2023-04-22T09:28:11.866Z,94604.00
2023-04-22T09:29:11.916Z,94602.00
2023-04-22T09:30:11.987Z,94598.00
2023-04-22T09:31:12.088Z,94598.00
2023-04-22T09:32:12.164Z,94596.00
2023-04-22T09:33:12.201Z,94596.00
2023-04-22T09:34:12.240Z,94596.00
2023-04-22T09:35:12.320Z,94596.00
2023-04-22T09:36:12.383Z,94594.00
2023-04-22T09:37:12.436Z,94590.00
2023-04-22T09:38:12.466Z,94588.00
2023-04-22T09:39:12.543Z,94586.00
2023-04-22T09:40:12.562Z,94582.00
2023-04-22T09:41:12.650Z,94582.00
2023-04-22T09:42:12.717Z,94582.00
2023-04-22T09:43:12.837Z,94577.00
2023-04-22T09:44:12.832Z,94575.00
2023-04-22T09:45:12.856Z,94573.00
2023-04-22T09:46:12.934Z,94573.00
2023-04-22T09:47:13.007Z,94571.00
2023-04-22T09:48:13.048Z,94571.00
2023-04-22T09:49:13.075Z,94567.00
2023-04-22T09:50:13.121Z,94565.00
2023-04-22T09:51:13.203Z,94563.00
2023-04-22T09:52:13.255Z,94563.00
2023-04-22T09:53:13.291Z,94559.00
2023-04-22T09:54:13.357Z,94557.00
2023-04-22T09:55:13.419Z,94561.00
2023-04-22T09:56:13.447Z,94555.00
2023-04-22T09:57:13.492Z,94555.00
2023-04-22T09:58:13.555Z,94555.00
2023-04-22T09:59:13.587Z,94553.00
2023-04-22T10:00:13.654Z,94553.00
2023-04-22T10:01:13.821Z,94553.00
2023-04-22T10:02:13.782Z,94551.00
2023-04-22T10:03:14.029Z,94547.00
2023-04-22T10:04:13.978Z,94545.00
2023-04-22T10:05:13.908Z,94543.00
2023-04-22T10:06:13.983Z,94539.00
2023-04-22T10:07:14.040Z,94537.00
2023-04-22T10:08:14.078Z,94535.00
2023-04-22T10:09:14.142Z,94535.00
2023-04-22T10:10:14.158Z,94533.00
2023-04-22T10:11:14.399Z,94530.00
2023-04-22T10:12:16.526Z,94530.00
2023-04-22T10:13:14.293Z,94532.00
2023-04-22T10:14:14.341Z,94530.00
2023-04-22T10:15:14.361Z,94526.00
2023-04-22T10:16:14.504Z,94530.00
2023-04-22T10:17:14.448Z,94526.00
2023-04-22T10:18:14.494Z,94528.00
2023-04-22T10:19:14.535Z,94524.00
2023-04-22T10:20:14.560Z,94520.00
2023-04-22T10:21:14.592Z,94518.00
2023-04-22T10:22:14.647Z,94516.00
2023-04-22T10:23:14.695Z,94518.00
2023-04-22T10:24:14.716Z,94516.00
2023-04-22T10:25:14.781Z,94516.00
2023-04-22T10:26:14.782Z,94512.00
2023-04-22T10:27:14.837Z,94514.00
2023-04-22T10:28:14.869Z,94512.00
2023-04-22T10:29:14.909Z,94514.00
2023-04-22T10:30:15.005Z,94508.00
2023-04-22T10:31:14.979Z,94510.00
2023-04-22T10:32:14.971Z,94506.00
2023-04-22T10:33:14.999Z,94504.00
2023-04-22T10:34:15.041Z,94506.00
2023-04-22T10:35:15.097Z,94502.00
2023-04-22T10:36:15.092Z,94498.00
2023-04-22T10:37:15.115Z,94502.00
2023-04-22T10:38:15.163Z,94498.00
2023-04-22T10:39:15.207Z,94500.00
2023-04-22T10:40:15.241Z,94496.00
2023-04-22T10:41:15.251Z,94494.00
2023-04-22T10:42:15.274Z,94492.00
2023-04-22T10:43:15.308Z,94490.00
2023-04-22T10:44:15.322Z,94488.00
2023-04-22T10:45:15.351Z,94488.00
2023-04-22T10:46:15.387Z,94488.00
2023-04-22T10:47:15.446Z,94485.00
2023-04-22T10:48:15.475Z,94483.00
2023-04-22T10:49:15.449Z,94479.00
2023-04-22T10:50:15.480Z,94477.00
2023-04-22T10:51:15.517Z,94475.00
2023-04-22T10:52:15.583Z,94473.00
2023-04-22T10:53:15.584Z,94473.00
2023-04-22T10:54:15.595Z,94465.00
2023-04-22T10:55:15.597Z,94465.00
2023-04-22T10:56:15.626Z,94461.00
2023-04-22T10:57:15.667Z,94457.00
2023-04-22T10:58:15.679Z,94455.00
2023-04-22T10:59:15.668Z,94453.00
2023-04-22T11:00:15.718Z,94453.00
2023-04-22T11:01:15.773Z,94451.00
2023-04-22T11:02:15.792Z,94453.00
2023-04-22T11:03:15.857Z,94451.00
2023-04-22T11:04:15.933Z,94449.00
2023-04-22T11:05:15.810Z,94451.00
2023-04-22T11:06:15.813Z,94449.00
2023-04-22T11:07:15.850Z,94445.00
2023-04-22T11:08:15.841Z,94445.00
2023-04-22T11:09:15.901Z,94447.00
2023-04-22T11:10:15.955Z,94445.00
2023-04-22T11:11:16.793Z,94449.00
2023-04-22T11:12:15.929Z,94447.00
2023-04-22T11:13:15.954Z,94443.00
2023-04-22T11:14:16.079Z,94447.00
2023-04-22T11:15:15.977Z,94447.00
2023-04-22T11:16:16.103Z,94447.00
2023-04-22T11:17:16.039Z,94441.00
2023-04-22T11:18:16.073Z,94438.00
2023-04-22T11:19:16.088Z,94441.00
2023-04-22T11:20:16.092Z,94439.00
2023-04-22T11:21:16.088Z,94439.00
2023-04-22T11:22:16.145Z,94438.00
2023-04-22T11:23:16.138Z,94436.00
2023-04-22T11:24:16.153Z,94436.00
2023-04-22T11:25:16.168Z,94434.00
2023-04-22T11:26:16.177Z,94434.00
2023-04-22T11:27:16.180Z,94432.00
2023-04-22T11:28:16.201Z,94428.00
2023-04-22T11:29:16.216Z,94430.00
2023-04-22T11:30:16.219Z,94430.00
2023-04-22T11:31:16.250Z,94428.00
2023-04-22T11:32:16.302Z,94426.00
2023-04-22T11:33:16.335Z,94426.00
2023-04-22T11:34:16.314Z,94424.00
2023-04-22T11:35:16.333Z,94422.00
2023-04-22T11:36:16.348Z,94424.00
2023-04-22T11:37:16.381Z,94422.00
2023-04-22T11:38:16.420Z,94422.00
2023-04-22T11:39:16.413Z,94422.00
2023-04-22T11:40:27.764Z,94424.00
2023-04-22T11:41:17.553Z,94424.00
2023-04-22T11:42:16.418Z,94420.00
2023-04-22T11:43:16.447Z,94420.00
2023-04-22T11:44:16.432Z,94420.00
2023-04-22T11:45:16.405Z,94414.00
2023-04-22T11:46:16.445Z,94414.00